Terminal Aerodrome Forecast
Issued by NWS

Home | Current Version | Previous Version | Text Only | Print | Product List | Glossary On
Versions: 1 2 3 4 5 6 7 8 9 10 11 12 13 14 15 16 17 18 19 20 21
000
FTAK31 PAJN 262300
TAFAKT
TAF
PAKT 262330Z 2700/2724 12010KT P6SM SCT045 BKN150
     FM270400 32007KT P6SM SCT100
     FM271200 32007KT P6SM SCT015 BKN050
     FM271800 33012KT P6SM SCT015 BKN050
      AMD LTD TO CLD VIS AND WIND 2706/2715=

USA.gov is the U.S. government's official web portal to all federal, state and local government web resources and services.